sensor_id;sensor_type;location;lat;lon;timestamp;pressure;altitude;pressure_sealevel;temperature;humidity
4858;BME280;58975;51.978;8.472;2023-05-11T00:01:24;100435.38;;;12.06;100.00
4858;BME280;58975;51.978;8.472;2023-05-11T00:06:20;100430.88;;;12.06;100.00
4858;BME280;58975;51.978;8.472;2023-05-11T00:11:17;100426.13;;;12.10;100.00
4858;BME280;58975;51.978;8.472;2023-05-11T00:16:14;100421.63;;;12.10;100.00
4858;BME280;58975;51.978;8.472;2023-05-11T00:21:10;100417.25;;;12.09;100.00
4858;BME280;58975;51.978;8.472;2023-05-11T00:26:07;100426.13;;;12.10;100.00
4858;BME280;58975;51.978;8.472;2023-05-11T00:31:03;100428.78;;;12.10;100.00
4858;BME280;58975;51.978;8.472;2023-05-11T00:36:00;100419.84;;;12.00;100.00
4858;BME280;58975;51.978;8.472;2023-05-11T00:40:57;100414.94;;;11.95;100.00
4858;BME280;58975;51.978;8.472;2023-05-11T00:45:53;100403.22;;;11.87;100.00
4858;BME280;58975;51.978;8.472;2023-05-11T00:50:50;100399.41;;;11.79;100.00
4858;BME280;58975;51.978;8.472;2023-05-11T00:55:46;100395.53;;;11.72;100.00
4858;BME280;58975;51.978;8.472;2023-05-11T01:00:43;100407.06;;;11.73;100.00
4858;BME280;58975;51.978;8.472;2023-05-11T01:05:46;100417.81;;;11.82;100.00
4858;BME280;58975;51.978;8.472;2023-05-11T01:10:47;100412.66;;;11.91;100.00
4858;BME280;58975;51.978;8.472;2023-05-11T01:15:50;100410.56;;;11.94;100.00
4858;BME280;58975;51.978;8.472;2023-05-11T01:20:48;100423.25;;;12.02;100.00
4858;BME280;58975;51.978;8.472;2023-05-11T01:31:03;100422.69;;;11.98;100.00
4858;BME280;58975;51.978;8.472;2023-05-11T01:36:05;100407.94;;;12.04;100.00
4858;BME280;58975;51.978;8.472;2023-05-11T01:41:09;100420.78;;;12.10;100.00
4858;BME280;58975;51.978;8.472;2023-05-11T01:46:09;100412.03;;;12.08;100.00
4858;BME280;58975;51.978;8.472;2023-05-11T01:51:06;100412.66;;;12.11;100.00
4858;BME280;58975;51.978;8.472;2023-05-11T01:56:04;100403.78;;;12.11;100.00
4858;BME280;58975;51.978;8.472;2023-05-11T02:01:02;100398.97;;;12.05;100.00
4858;BME280;58975;51.978;8.472;2023-05-11T02:06:00;100393.72;;;11.94;100.00
4858;BME280;58975;51.978;8.472;2023-05-11T02:10:58;100393.66;;;11.84;100.00
4858;BME280;58975;51.978;8.472;2023-05-11T02:15:58;100393.25;;;11.89;100.00
4858;BME280;58975;51.978;8.472;2023-05-11T02:20:57;100385.81;;;11.92;100.00
4858;BME280;58975;51.978;8.472;2023-05-11T02:25:55;100384.75;;;11.95;100.00
4858;BME280;58975;51.978;8.472;2023-05-11T02:30:54;100385.16;;;12.00;100.00
4858;BME280;58975;51.978;8.472;2023-05-11T02:35:54;100380.56;;;12.02;100.00
4858;BME280;58975;51.978;8.472;2023-05-11T02:40:54;100383.69;;;12.07;100.00
4858;BME280;58975;51.978;8.472;2023-05-11T02:45:56;100385.69;;;12.14;100.00
4858;BME280;58975;51.978;8.472;2023-05-11T02:50:55;100368.53;;;12.17;100.00
4858;BME280;58975;51.978;8.472;2023-05-11T02:55:54;100365.41;;;12.12;100.00
4858;BME280;58975;51.978;8.472;2023-05-11T03:00:51;100347.56;;;12.12;100.00
4858;BME280;58975;51.978;8.472;2023-05-11T03:05:48;100339.00;;;12.09;100.00
4858;BME280;58975;51.978;8.472;2023-05-11T03:10:45;100331.97;;;12.08;100.00
4858;BME280;58975;51.978;8.472;2023-05-11T03:15:42;100323.53;;;12.03;100.00
4858;BME280;58975;51.978;8.472;2023-05-11T03:20:40;100322.38;;;11.96;100.00
4858;BME280;58975;51.978;8.472;2023-05-11T03:25:40;100316.03;;;11.97;100.00
4858;BME280;58975;51.978;8.472;2023-05-11T03:30:39;100321.66;;;11.94;100.00
4858;BME280;58975;51.978;8.472;2023-05-11T03:35:35;100323.34;;;11.95;100.00
4858;BME280;58975;51.978;8.472;2023-05-11T03:40:33;100317.28;;;11.93;100.00
4858;BME280;58975;51.978;8.472;2023-05-11T03:45:30;100320.41;;;11.98;100.00
4858;BME280;58975;51.978;8.472;2023-05-11T03:50:28;100313.09;;;12.00;100.00
4858;BME280;58975;51.978;8.472;2023-05-11T03:55:25;100316.50;;;12.02;100.00
4858;BME280;58975;51.978;8.472;2023-05-11T04:00:22;100316.78;;;11.99;100.00
4858;BME280;58975;51.978;8.472;2023-05-11T04:05:19;100310.03;;;12.04;100.00
4858;BME280;58975;51.978;8.472;2023-05-11T04:10:15;100305.53;;;12.05;100.00
4858;BME280;58975;51.978;8.472;2023-05-11T04:15:12;100304.13;;;12.01;100.00
4858;BME280;58975;51.978;8.472;2023-05-11T04:20:09;100314.22;;;11.88;100.00
4858;BME280;58975;51.978;8.472;2023-05-11T04:25:05;100309.25;;;11.83;100.00
4858;BME280;58975;51.978;8.472;2023-05-11T04:30:02;100323.00;;;11.78;100.00
4858;BME280;58975;51.978;8.472;2023-05-11T04:34:58;100325.41;;;11.81;100.00
4858;BME280;58975;51.978;8.472;2023-05-11T04:39:55;100323.19;;;11.87;100.00
4858;BME280;58975;51.978;8.472;2023-05-11T04:44:52;100345.28;;;11.98;100.00
4858;BME280;58975;51.978;8.472;2023-05-11T04:49:49;100340.63;;;11.91;100.00
4858;BME280;58975;51.978;8.472;2023-05-11T04:54:47;100349.97;;;11.85;100.00
4858;BME280;58975;51.978;8.472;2023-05-11T04:59:43;100357.13;;;11.84;100.00
4858;BME280;58975;51.978;8.472;2023-05-11T05:04:40;100364.28;;;11.84;100.00
4858;BME280;58975;51.978;8.472;2023-05-11T05:09:36;100377.41;;;11.87;100.00
4858;BME280;58975;51.978;8.472;2023-05-11T05:14:32;100374.34;;;11.92;100.00
4858;BME280;58975;51.978;8.472;2023-05-11T05:19:29;100387.69;;;11.92;100.00
4858;BME280;58975;51.978;8.472;2023-05-11T05:24:25;100409.38;;;12.08;100.00
4858;BME280;58975;51.978;8.472;2023-05-11T05:29:22;100414.69;;;12.28;100.00
4858;BME280;58975;51.978;8.472;2023-05-11T05:34:18;100430.75;;;12.38;100.00
4858;BME280;58975;51.978;8.472;2023-05-11T05:39:15;100449.06;;;12.52;100.00
4858;BME280;58975;51.978;8.472;2023-05-11T05:44:11;100451.22;;;12.58;100.00
4858;BME280;58975;51.978;8.472;2023-05-11T05:49:08;100465.44;;;12.68;100.00
4858;BME280;58975;51.978;8.472;2023-05-11T05:54:04;100459.31;;;12.77;100.00
4858;BME280;58975;51.978;8.472;2023-05-11T05:59:01;100462.56;;;12.91;100.00
4858;BME280;58975;51.978;8.472;2023-05-11T06:03:57;100447.59;;;12.69;100.00
4858;BME280;58975;51.978;8.472;2023-05-11T06:08:54;100438.06;;;12.76;100.00
4858;BME280;58975;51.978;8.472;2023-05-11T06:13:50;100425.00;;;13.02;100.00
4858;BME280;58975;51.978;8.472;2023-05-11T06:18:47;100408.72;;;13.05;100.00
4858;BME280;58975;51.978;8.472;2023-05-11T06:23:43;100389.72;;;13.08;100.00
4858;BME280;58975;51.978;8.472;2023-05-11T06:28:40;100365.09;;;12.85;100.00
4858;BME280;58975;51.978;8.472;2023-05-11T06:33:36;100338.63;;;12.92;100.00
4858;BME280;58975;51.978;8.472;2023-05-11T06:38:33;100325.56;;;12.89;100.00
4858;BME280;58975;51.978;8.472;2023-05-11T06:43:29;100317.38;;;12.80;100.00
4858;BME280;58975;51.978;8.472;2023-05-11T06:48:25;100293.03;;;13.03;100.00
4858;BME280;58975;51.978;8.472;2023-05-11T06:53:24;100306.97;;;13.25;100.00
4858;BME280;58975;51.978;8.472;2023-05-11T06:58:21;100289.53;;;13.21;100.00
4858;BME280;58975;51.978;8.472;2023-05-11T07:03:18;100275.34;;;13.21;100.00
4858;BME280;58975;51.978;8.472;2023-05-11T07:08:14;100262.53;;;13.24;100.00
4858;BME280;58975;51.978;8.472;2023-05-11T07:13:11;100259.13;;;13.22;100.00
4858;BME280;58975;51.978;8.472;2023-05-11T07:18:07;100252.78;;;13.33;100.00
4858;BME280;58975;51.978;8.472;2023-05-11T07:23:04;100239.81;;;13.48;100.00
4858;BME280;58975;51.978;8.472;2023-05-11T07:28:00;100246.19;;;13.74;100.00
4858;BME280;58975;51.978;8.472;2023-05-11T07:32:57;100234.97;;;13.88;100.00
4858;BME280;58975;51.978;8.472;2023-05-11T07:37:53;100233.03;;;14.08;100.00
4858;BME280;58975;51.978;8.472;2023-05-11T07:42:50;100229.78;;;13.87;100.00
4858;BME280;58975;51.978;8.472;2023-05-11T07:47:46;100221.97;;;13.66;100.00
4858;BME280;58975;51.978;8.472;2023-05-11T07:52:42;100221.88;;;13.58;100.00
4858;BME280;58975;51.978;8.472;2023-05-11T07:57:39;100218.66;;;13.54;100.00
4858;BME280;58975;51.978;8.472;2023-05-11T08:02:35;100215.44;;;13.78;100.00
4858;BME280;58975;51.978;8.472;2023-05-11T08:07:32;100212.25;;;13.92;100.00
4858;BME280;58975;51.978;8.472;2023-05-11T08:12:28;100212.50;;;14.26;100.00
4858;BME280;58975;51.978;8.472;2023-05-11T08:17:25;100203.00;;;13.87;100.00
4858;BME280;58975;51.978;8.472;2023-05-11T08:22:21;100214.81;;;13.94;100.00
4858;BME280;58975;51.978;8.472;2023-05-11T08:27:18;100208.69;;;13.84;100.00
4858;BME280;58975;51.978;8.472;2023-05-11T08:32:14;100207.75;;;13.93;100.00
4858;BME280;58975;51.978;8.472;2023-05-11T08:37:12;100216.13;;;14.07;100.00
4858;BME280;58975;51.978;8.472;2023-05-11T08:42:09;100214.78;;;14.21;100.00
4858;BME280;58975;51.978;8.472;2023-05-11T08:47:10;100216.84;;;14.27;100.00
4858;BME280;58975;51.978;8.472;2023-05-11T08:52:19;100217.34;;;14.40;100.00
4858;BME280;58975;51.978;8.472;2023-05-11T08:57:16;100224.31;;;14.06;100.00
4858;BME280;58975;51.978;8.472;2023-05-11T09:02:17;100227.88;;;13.97;100.00
4858;BME280;58975;51.978;8.472;2023-05-11T09:07:15;100235.44;;;13.84;100.00
4858;BME280;58975;51.978;8.472;2023-05-11T09:12:12;100237.31;;;14.01;100.00
4858;BME280;58975;51.978;8.472;2023-05-11T09:17:09;100235.13;;;14.14;100.00
4858;BME280;58975;51.978;8.472;2023-05-11T09:22:06;100232.78;;;14.29;100.00
4858;BME280;58975;51.978;8.472;2023-05-11T09:27:07;100219.63;;;14.71;100.00
4858;BME280;58975;51.978;8.472;2023-05-11T09:32:04;100209.69;;;14.63;100.00
4858;BME280;58975;51.978;8.472;2023-05-11T09:37:01;100210.28;;;14.75;100.00
4858;BME280;58975;51.978;8.472;2023-05-11T09:42:14;100200.47;;;15.27;100.00
4858;BME280;58975;51.978;8.472;2023-05-11T09:47:18;100204.31;;;15.24;100.00
4858;BME280;58975;51.978;8.472;2023-05-11T09:52:16;100203.31;;;14.99;100.00
4858;BME280;58975;51.978;8.472;2023-05-11T09:57:25;100218.25;;;14.66;100.00
4858;BME280;58975;51.978;8.472;2023-05-11T10:02:24;100208.56;;;14.03;100.00
4858;BME280;58975;51.978;8.472;2023-05-11T10:07:26;100220.94;;;14.04;100.00
4858;BME280;58975;51.978;8.472;2023-05-11T10:12:24;100214.88;;;13.47;100.00
4858;BME280;58975;51.978;8.472;2023-05-11T10:17:21;100223.09;;;13.36;100.00
4858;BME280;58975;51.978;8.472;2023-05-11T10:22:17;100220.41;;;13.36;100.00
4858;BME280;58975;51.978;8.472;2023-05-11T10:27:15;100228.88;;;13.32;100.00
4858;BME280;58975;51.978;8.472;2023-05-11T10:32:14;100229.41;;;13.35;100.00
4858;BME280;58975;51.978;8.472;2023-05-11T10:37:13;100229.53;;;13.43;100.00
4858;BME280;58975;51.978;8.472;2023-05-11T10:42:46;100232.44;;;13.59;100.00
4858;BME280;58975;51.978;8.472;2023-05-11T10:58:06;100237.50;;;13.90;100.00
4858;BME280;58975;51.978;8.472;2023-05-11T11:03:11;100232.44;;;14.14;100.00
4858;BME280;58975;51.978;8.472;2023-05-11T11:08:08;100222.94;;;14.02;100.00
4858;BME280;58975;51.978;8.472;2023-05-11T11:13:09;100225.31;;;14.05;100.00
4858;BME280;58975;51.978;8.472;2023-05-11T11:18:26;100227.69;;;14.08;100.00
4858;BME280;58975;51.978;8.472;2023-05-11T11:33:49;100212.81;;;14.23;100.00
4858;BME280;58975;51.978;8.472;2023-05-11T11:38:58;100212.63;;;14.70;100.00
4858;BME280;58975;51.978;8.472;2023-05-11T11:43:59;100209.03;;;15.04;100.00
4858;BME280;58975;51.978;8.472;2023-05-11T11:49:05;100212.38;;;14.63;100.00
4858;BME280;58975;51.978;8.472;2023-05-11T11:54:03;100209.50;;;14.29;100.00
4858;BME280;58975;51.978;8.472;2023-05-11T11:59:00;100217.53;;;14.29;100.00
4858;BME280;58975;51.978;8.472;2023-05-11T12:04:11;100231.84;;;14.20;100.00
4858;BME280;58975;51.978;8.472;2023-05-11T12:09:17;100223.09;;;14.63;100.00
4858;BME280;58975;51.978;8.472;2023-05-11T12:14:14;100215.91;;;14.81;100.00
4858;BME280;58975;51.978;8.472;2023-05-11T12:19:10;100214.22;;;14.80;100.00
4858;BME280;58975;51.978;8.472;2023-05-11T12:24:10;100213.69;;;14.77;100.00
4858;BME280;58975;51.978;8.472;2023-05-11T12:29:11;100219.50;;;14.37;100.00
4858;BME280;58975;51.978;8.472;2023-05-11T12:34:21;100206.94;;;14.37;100.00
4858;BME280;58975;51.978;8.472;2023-05-11T12:39:23;100211.41;;;14.46;100.00
4858;BME280;58975;51.978;8.472;2023-05-11T12:44:22;100202.66;;;14.62;100.00
4858;BME280;58975;51.978;8.472;2023-05-11T12:49:22;100206.09;;;14.37;100.00
4858;BME280;58975;51.978;8.472;2023-05-11T12:54:30;100216.59;;;14.48;100.00
4858;BME280;58975;51.978;8.472;2023-05-11T12:59:28;100211.16;;;14.57;100.00
4858;BME280;58975;51.978;8.472;2023-05-11T13:04:29;100199.91;;;14.36;100.00
4858;BME280;58975;51.978;8.472;2023-05-11T13:09:26;100199.75;;;14.55;100.00
4858;BME280;58975;51.978;8.472;2023-05-11T13:14:23;100193.00;;;14.51;100.00
4858;BME280;58975;51.978;8.472;2023-05-11T13:19:27;100188.88;;;14.39;100.00
4858;BME280;58975;51.978;8.472;2023-05-11T13:24:25;100200.38;;;14.49;100.00
4858;BME280;58975;51.978;8.472;2023-05-11T13:29:22;100196.16;;;14.64;100.00
4858;BME280;58975;51.978;8.472;2023-05-11T13:34:19;100188.78;;;14.84;100.00
4858;BME280;58975;51.978;8.472;2023-05-11T13:39:15;100181.13;;;14.72;100.00
4858;BME280;58975;51.978;8.472;2023-05-11T13:44:12;100189.25;;;14.80;100.00
4858;BME280;58975;51.978;8.472;2023-05-11T13:49:08;100186.09;;;15.10;100.00
4858;BME280;58975;51.978;8.472;2023-05-11T13:54:05;100184.69;;;15.49;100.00
4858;BME280;58975;51.978;8.472;2023-05-11T13:59:02;100176.53;;;14.82;100.00
4858;BME280;58975;51.978;8.472;2023-05-11T14:03:58;100179.03;;;15.01;100.00
4858;BME280;58975;51.978;8.472;2023-05-11T14:08:55;100180.91;;;15.34;100.00
4858;BME280;58975;51.978;8.472;2023-05-11T14:13:51;100177.00;;;15.03;100.00
4858;BME280;58975;51.978;8.472;2023-05-11T14:18:48;100165.56;;;14.93;100.00
4858;BME280;58975;51.978;8.472;2023-05-11T14:23:46;100168.38;;;14.91;100.00
4858;BME280;58975;51.978;8.472;2023-05-11T14:28:57;100155.56;;;14.77;100.00
4858;BME280;58975;51.978;8.472;2023-05-11T14:33:54;100164.97;;;14.63;100.00
4858;BME280;58975;51.978;8.472;2023-05-11T14:38:51;100166.22;;;14.69;100.00
4858;BME280;58975;51.978;8.472;2023-05-11T14:43:48;100171.00;;;14.83;100.00
4858;BME280;58975;51.978;8.472;2023-05-11T14:48:44;100168.44;;;14.99;100.00
4858;BME280;58975;51.978;8.472;2023-05-11T14:53:41;100163.34;;;14.88;100.00
4858;BME280;58975;51.978;8.472;2023-05-11T14:58:37;100166.03;;;14.71;100.00
4858;BME280;58975;51.978;8.472;2023-05-11T15:03:34;100156.28;;;14.61;100.00
4858;BME280;58975;51.978;8.472;2023-05-11T15:08:32;100172.84;;;14.83;100.00
4858;BME280;58975;51.978;8.472;2023-05-11T15:13:29;100165.97;;;14.80;100.00
4858;BME280;58975;51.978;8.472;2023-05-11T15:18:25;100176.16;;;14.77;100.00
4858;BME280;58975;51.978;8.472;2023-05-11T15:23:22;100167.59;;;14.55;100.00
4858;BME280;58975;51.978;8.472;2023-05-11T15:28:19;100169.28;;;14.56;100.00
4858;BME280;58975;51.978;8.472;2023-05-11T15:33:16;100184.63;;;14.46;100.00
4858;BME280;58975;51.978;8.472;2023-05-11T15:38:13;100186.13;;;14.49;100.00
4858;BME280;58975;51.978;8.472;2023-05-11T15:43:09;100186.66;;;14.52;100.00
4858;BME280;58975;51.978;8.472;2023-05-11T15:48:06;100195.47;;;14.45;100.00
4858;BME280;58975;51.978;8.472;2023-05-11T15:53:03;100186.06;;;14.31;100.00
4858;BME280;58975;51.978;8.472;2023-05-11T15:57:59;100187.91;;;14.13;100.00
4858;BME280;58975;51.978;8.472;2023-05-11T16:02:56;100192.69;;;13.92;100.00
4858;BME280;58975;51.978;8.472;2023-05-11T16:07:52;100194.81;;;13.88;100.00
4858;BME280;58975;51.978;8.472;2023-05-11T16:12:48;100195.97;;;13.86;100.00
4858;BME280;58975;51.978;8.472;2023-05-11T16:17:45;100198.44;;;13.97;100.00
4858;BME280;58975;51.978;8.472;2023-05-11T16:22:42;100190.50;;;14.05;100.00
4858;BME280;58975;51.978;8.472;2023-05-11T16:27:38;100185.41;;;13.84;100.00
4858;BME280;58975;51.978;8.472;2023-05-11T16:32:35;100196.69;;;13.88;100.00
4858;BME280;58975;51.978;8.472;2023-05-11T16:37:31;100196.38;;;13.91;100.00
4858;BME280;58975;51.978;8.472;2023-05-11T16:42:28;100203.00;;;13.87;100.00
4858;BME280;58975;51.978;8.472;2023-05-11T16:47:24;100195.63;;;13.71;100.00
4858;BME280;58975;51.978;8.472;2023-05-11T16:52:21;100197.75;;;13.67;100.00
4858;BME280;58975;51.978;8.472;2023-05-11T16:57:17;100191.91;;;13.54;100.00
4858;BME280;58975;51.978;8.472;2023-05-11T17:02:14;100198.94;;;13.55;100.00
4858;BME280;58975;51.978;8.472;2023-05-11T17:07:10;100201.50;;;13.47;100.00
4858;BME280;58975;51.978;8.472;2023-05-11T17:12:10;100201.81;;;13.35;100.00
4858;BME280;58975;51.978;8.472;2023-05-11T17:17:06;100209.03;;;13.24;100.00
4858;BME280;58975;51.978;8.472;2023-05-11T17:22:03;100217.22;;;13.13;100.00
4858;BME280;58975;51.978;8.472;2023-05-11T17:27:00;100235.50;;;13.18;100.00
4858;BME280;58975;51.978;8.472;2023-05-11T17:31:56;100231.69;;;13.30;100.00
4858;BME280;58975;51.978;8.472;2023-05-11T17:36:53;100236.22;;;13.20;100.00
4858;BME280;58975;51.978;8.472;2023-05-11T17:41:49;100240.56;;;13.02;100.00
4858;BME280;58975;51.978;8.472;2023-05-11T17:46:46;100251.41;;;13.00;100.00
4858;BME280;58975;51.978;8.472;2023-05-11T17:51:43;100260.69;;;12.96;100.00
4858;BME280;58975;51.978;8.472;2023-05-11T17:56:39;100271.38;;;12.87;100.00
4858;BME280;58975;51.978;8.472;2023-05-11T18:01:36;100283.09;;;12.86;100.00
4858;BME280;58975;51.978;8.472;2023-05-11T18:06:33;100284.34;;;12.82;100.00
4858;BME280;58975;51.978;8.472;2023-05-11T18:11:29;100293.63;;;12.77;100.00
4858;BME280;58975;51.978;8.472;2023-05-11T18:16:26;100304.16;;;12.69;100.00
4858;BME280;58975;51.978;8.472;2023-05-11T18:21:22;100306.84;;;12.69;100.00
4858;BME280;58975;51.978;8.472;2023-05-11T18:26:24;100324.00;;;12.76;100.00
4858;BME280;58975;51.978;8.472;2023-05-11T18:31:21;100331.56;;;12.71;100.00
4858;BME280;58975;51.978;8.472;2023-05-11T18:36:17;100335.94;;;12.72;100.00
4858;BME280;58975;51.978;8.472;2023-05-11T18:41:14;100345.91;;;12.70;100.00
4858;BME280;58975;51.978;8.472;2023-05-11T18:46:10;100349.03;;;12.75;100.00
4858;BME280;58975;51.978;8.472;2023-05-11T18:51:07;100356.19;;;12.65;100.00
4858;BME280;58975;51.978;8.472;2023-05-11T18:56:04;100370.69;;;12.72;100.00
4858;BME280;58975;51.978;8.472;2023-05-11T19:01:00;100377.97;;;12.70;100.00
4858;BME280;58975;51.978;8.472;2023-05-11T19:05:58;100381.66;;;12.69;100.00
4858;BME280;58975;51.978;8.472;2023-05-11T19:10:56;100386.28;;;12.67;100.00
4858;BME280;58975;51.978;8.472;2023-05-11T19:15:52;100391.16;;;12.62;100.00
4858;BME280;58975;51.978;8.472;2023-05-11T19:20:48;100385.00;;;12.62;100.00
4858;BME280;58975;51.978;8.472;2023-05-11T19:25:45;100394.97;;;12.60;100.00
4858;BME280;58975;51.978;8.472;2023-05-11T19:30:41;100403.56;;;12.63;100.00
4858;BME280;58975;51.978;8.472;2023-05-11T19:35:38;100415.09;;;12.64;100.00
4858;BME280;58975;51.978;8.472;2023-05-11T19:40:35;100408.03;;;12.63;100.00
4858;BME280;58975;51.978;8.472;2023-05-11T19:45:41;100408.91;;;12.63;100.00
4858;BME280;58975;51.978;8.472;2023-05-11T19:50:41;100409.19;;;12.60;100.00
4858;BME280;58975;51.978;8.472;2023-05-11T19:55:38;100423.22;;;12.62;100.00
4858;BME280;58975;51.978;8.472;2023-05-11T20:00:37;100435.91;;;12.60;100.00
4858;BME280;58975;51.978;8.472;2023-05-11T20:05:33;100444.88;;;12.59;100.00
4858;BME280;58975;51.978;8.472;2023-05-11T20:10:30;100452.19;;;12.57;100.00
4858;BME280;58975;51.978;8.472;2023-05-11T20:15:27;100462.59;;;12.60;100.00
4858;BME280;58975;51.978;8.472;2023-05-11T20:20:23;100460.63;;;12.62;100.00
4858;BME280;58975;51.978;8.472;2023-05-11T20:25:20;100481.75;;;12.65;100.00
4858;BME280;58975;51.978;8.472;2023-05-11T20:30:17;100479.22;;;12.64;100.00
4858;BME280;58975;51.978;8.472;2023-05-11T20:35:13;100481.03;;;12.63;100.00
4858;BME280;58975;51.978;8.472;2023-05-11T20:40:10;100481.88;;;12.64;100.00
4858;BME280;58975;51.978;8.472;2023-05-11T20:45:07;100487.09;;;12.65;100.00
4858;BME280;58975;51.978;8.472;2023-05-11T20:50:04;100491.03;;;12.71;100.00
4858;BME280;58975;51.978;8.472;2023-05-11T20:55:01;100496.84;;;12.76;100.00
4858;BME280;58975;51.978;8.472;2023-05-11T20:59:58;100497.50;;;12.68;100.00
4858;BME280;58975;51.978;8.472;2023-05-11T21:04:57;100499.72;;;12.63;100.00
4858;BME280;58975;51.978;8.472;2023-05-11T21:09:57;100507.47;;;12.66;100.00
4858;BME280;58975;51.978;8.472;2023-05-11T21:14:53;100514.25;;;12.70;100.00
4858;BME280;58975;51.978;8.472;2023-05-11T21:19:52;100511.84;;;12.67;100.00
4858;BME280;58975;51.978;8.472;2023-05-11T21:24:48;100517.19;;;12.67;100.00
4858;BME280;58975;51.978;8.472;2023-05-11T21:29:45;100527.88;;;12.67;100.00
4858;BME280;58975;51.978;8.472;2023-05-11T21:34:41;100527.59;;;12.70;100.00
4858;BME280;58975;51.978;8.472;2023-05-11T21:39:38;100530.81;;;12.64;100.00
4858;BME280;58975;51.978;8.472;2023-05-11T21:44:34;100524.63;;;12.64;100.00
4858;BME280;58975;51.978;8.472;2023-05-11T21:49:31;100529.66;;;12.57;100.00
4858;BME280;58975;51.978;8.472;2023-05-11T21:54:28;100544.72;;;12.58;100.00
4858;BME280;58975;51.978;8.472;2023-05-11T21:59:24;100556.22;;;12.59;100.00
4858;BME280;58975;51.978;8.472;2023-05-11T22:04:22;100561.00;;;12.55;100.00
4858;BME280;58975;51.978;8.472;2023-05-11T22:09:19;100563.47;;;12.47;100.00
4858;BME280;58975;51.978;8.472;2023-05-11T22:14:15;100581.22;;;12.48;100.00
4858;BME280;58975;51.978;8.472;2023-05-11T22:19:12;100587.78;;;12.44;100.00
4858;BME280;58975;51.978;8.472;2023-05-11T22:24:09;100586.81;;;12.45;100.00
4858;BME280;58975;51.978;8.472;2023-05-11T22:29:05;100589.75;;;12.42;100.00
4858;BME280;58975;51.978;8.472;2023-05-11T22:34:02;100598.75;;;12.41;100.00
4858;BME280;58975;51.978;8.472;2023-05-11T22:38:58;100604.84;;;12.32;100.00
4858;BME280;58975;51.978;8.472;2023-05-11T22:43:54;100608.16;;;12.24;100.00
4858;BME280;58975;51.978;8.472;2023-05-11T22:48:51;100614.88;;;12.19;100.00
4858;BME280;58975;51.978;8.472;2023-05-11T22:53:47;100618.78;;;12.15;100.00
4858;BME280;58975;51.978;8.472;2023-05-11T22:58:44;100623.97;;;12.16;100.00
4858;BME280;58975;51.978;8.472;2023-05-11T23:03:41;100622.47;;;12.03;100.00
4858;BME280;58975;51.978;8.472;2023-05-11T23:08:37;100626.38;;;11.99;100.00
4858;BME280;58975;51.978;8.472;2023-05-11T23:13:34;100627.22;;;11.99;100.00
4858;BME280;58975;51.978;8.472;2023-05-11T23:18:31;100628.03;;;12.00;100.00
4858;BME280;58975;51.978;8.472;2023-05-11T23:23:28;100635.34;;;11.98;100.00
4858;BME280;58975;51.978;8.472;2023-05-11T23:28:24;100653.19;;;11.97;100.00
4858;BME280;58975;51.978;8.472;2023-05-11T23:33:21;100649.22;;;11.80;100.00
4858;BME280;58975;51.978;8.472;2023-05-11T23:38:18;100660.03;;;11.79;100.00
4858;BME280;58975;51.978;8.472;2023-05-11T23:43:14;100661.84;;;11.78;100.00
4858;BME280;58975;51.978;8.472;2023-05-11T23:48:11;100673.97;;;11.82;100.00
4858;BME280;58975;51.978;8.472;2023-05-11T23:53:07;100677.59;;;11.70;100.00
4858;BME280;58975;51.978;8.472;2023-05-11T23:58:04;100684.16;;;11.66;100.00
